createdAt,value
2016-08-03T00:00:31.891Z,1012.05
2016-08-03T00:01:31.911Z,1012.04
2016-08-03T00:02:31.942Z,1012.01
2016-08-03T00:03:31.950Z,1012
2016-08-03T00:04:31.973Z,1011.98
2016-08-03T00:05:31.996Z,1011.94
2016-08-03T00:06:32.016Z,1011.93
2016-08-03T00:07:32.046Z,1011.91
2016-08-03T00:08:32.062Z,1011.86
2016-08-03T00:09:32.081Z,1011.88
2016-08-03T00:10:32.104Z,1011.86
2016-08-03T00:11:32.132Z,1011.88
2016-08-03T00:12:32.150Z,1011.88
2016-08-03T00:13:32.166Z,1011.9
2016-08-03T00:14:32.190Z,1011.9
2016-08-03T00:15:32.210Z,1011.89
2016-08-03T00:16:32.231Z,1011.86
2016-08-03T00:17:32.257Z,1011.87
2016-08-03T00:18:32.270Z,1011.83
2016-08-03T00:19:32.298Z,1011.86
2016-08-03T00:20:32.319Z,1011.78
2016-08-03T00:21:32.335Z,1011.83
2016-08-03T00:22:32.360Z,1011.82
2016-08-03T00:23:32.380Z,1011.79
2016-08-03T00:24:32.399Z,1011.81
2016-08-03T00:25:32.428Z,1011.78
2016-08-03T00:26:32.451Z,1011.78
2016-08-03T00:27:32.469Z,1011.76
2016-08-03T00:29:32.510Z,1011.72
2016-08-03T00:30:32.525Z,1011.68
2016-08-03T00:31:32.551Z,1011.68
2016-08-03T00:32:32.572Z,1011.63
2016-08-03T00:33:32.599Z,1011.62
2016-08-03T00:34:32.620Z,1011.61
2016-08-03T00:35:32.639Z,1011.61
2016-08-03T00:36:32.659Z,1011.59
2016-08-03T00:37:32.675Z,1011.56
2016-08-03T00:38:32.698Z,1011.57
2016-08-03T00:39:32.729Z,1011.53
2016-08-03T00:40:32.742Z,1011.53
2016-08-03T00:41:32.766Z,1011.49
2016-08-03T00:42:32.783Z,1011.49
2016-08-03T00:43:32.804Z,1011.51
2016-08-03T00:44:32.822Z,1011.53
2016-08-03T00:45:32.850Z,1011.5
2016-08-03T00:46:32.868Z,1011.49
2016-08-03T00:47:32.889Z,1011.49
2016-08-03T00:48:32.911Z,1011.44
2016-08-03T00:49:32.930Z,1011.41
2016-08-03T00:50:33.008Z,1011.44
2016-08-03T00:51:32.981Z,1011.45
2016-08-03T00:52:33.065Z,1011.43
2016-08-03T00:53:33.029Z,1011.46
2016-08-03T00:54:33.089Z,1011.45
2016-08-03T00:55:33.059Z,1011.41
2016-08-03T00:56:33.131Z,1011.42
2016-08-03T00:57:33.101Z,1011.44
2016-08-03T00:58:33.120Z,1011.42
2016-08-03T00:59:33.149Z,1011.43
2016-08-03T01:00:33.167Z,1011.38
2016-08-03T01:01:33.186Z,1011.32
2016-08-03T01:02:33.211Z,1011.36
2016-08-03T01:03:33.237Z,1011.35
2016-08-03T01:04:33.252Z,1011.35
2016-08-03T01:05:33.389Z,1011.25
2016-08-03T01:06:33.303Z,1011.25
2016-08-03T01:07:33.334Z,1011.23
2016-08-03T01:08:33.337Z,1011.21
2016-08-03T01:09:33.362Z,1011.21
2016-08-03T01:10:33.379Z,1011.19
2016-08-03T01:11:33.406Z,1011.18
2016-08-03T01:12:33.421Z,1011.19
2016-08-03T01:13:33.442Z,1011.18
2016-08-03T01:14:33.462Z,1011.19
2016-08-03T01:15:33.481Z,1011.16
2016-08-03T01:16:33.509Z,1011.12
2016-08-03T01:17:33.521Z,1011.1
2016-08-03T01:18:33.548Z,1011.1
2016-08-03T01:19:33.567Z,1011.1
2016-08-03T01:20:33.587Z,1011.08
2016-08-03T01:21:33.614Z,1011.09
2016-08-03T01:22:33.640Z,1011.1
2016-08-03T01:23:33.651Z,1011.09
2016-08-03T01:24:33.681Z,1011.1
2016-08-03T01:25:33.702Z,1011.07
2016-08-03T01:26:33.716Z,1011.01
2016-08-03T01:27:33.751Z,1011.03
2016-08-03T01:28:33.757Z,1010.99
2016-08-03T01:29:33.777Z,1011.02
2016-08-03T01:30:33.799Z,1011.02
2016-08-03T01:31:33.822Z,1011.09
2016-08-03T01:32:33.840Z,1011.09
2016-08-03T01:33:33.872Z,1011.1
2016-08-03T01:34:33.890Z,1011.08
2016-08-03T01:35:33.909Z,1011.06
2016-08-03T01:36:33.928Z,1011
2016-08-03T01:37:33.956Z,1010.93
2016-08-03T01:38:33.971Z,1010.88
2016-08-03T01:39:33.994Z,1010.88
2016-08-03T01:40:34.013Z,1010.88
2016-08-03T01:41:34.043Z,1010.88
2016-08-03T01:42:34.057Z,1010.87
2016-08-03T01:43:34.081Z,1010.84
2016-08-03T01:44:34.102Z,1010.87
2016-08-03T01:45:34.122Z,1010.86
2016-08-03T01:46:34.152Z,1010.84
2016-08-03T01:47:34.163Z,1010.84
2016-08-03T01:48:34.189Z,1010.79
2016-08-03T01:49:34.212Z,1010.82
2016-08-03T01:50:34.228Z,1010.77
2016-08-03T01:51:34.251Z,1010.79
2016-08-03T01:52:34.271Z,1010.75
2016-08-03T01:53:34.290Z,1010.75
2016-08-03T01:54:34.312Z,1010.75
2016-08-03T01:55:34.330Z,1010.74
2016-08-03T01:56:34.362Z,1010.75
2016-08-03T01:57:34.381Z,1010.74
2016-08-03T01:58:34.396Z,1010.68
2016-08-03T01:59:34.423Z,1010.69
2016-08-03T02:00:34.442Z,1010.62
2016-08-03T02:01:34.475Z,1010.62
2016-08-03T02:02:34.484Z,1010.58
2016-08-03T02:03:34.510Z,1010.51
2016-08-03T02:04:34.531Z,1010.53
2016-08-03T02:05:34.544Z,1010.54
2016-08-03T02:06:34.572Z,1010.55
2016-08-03T02:07:34.592Z,1010.53
2016-08-03T02:08:34.614Z,1010.54
2016-08-03T02:09:34.636Z,1010.53
2016-08-03T02:10:34.657Z,1010.53
2016-08-03T02:11:34.683Z,1010.54
2016-08-03T02:12:34.706Z,1010.55
2016-08-03T02:13:34.722Z,1010.55
2016-08-03T02:14:34.752Z,1010.52
2016-08-03T02:15:34.772Z,1010.52
2016-08-03T02:16:34.788Z,1010.5
2016-08-03T02:17:34.909Z,1010.46
2016-08-03T02:18:34.828Z,1010.49
2016-08-03T02:19:34.848Z,1010.46
2016-08-03T02:20:34.869Z,1010.48
2016-08-03T02:21:34.891Z,1010.43
2016-08-03T02:22:34.922Z,1010.45
2016-08-03T02:23:34.933Z,1010.45
2016-08-03T02:24:34.961Z,1010.49
2016-08-03T02:25:34.978Z,1010.46
2016-08-03T02:26:34.998Z,1010.46
2016-08-03T02:27:35.023Z,1010.44
2016-08-03T02:28:35.051Z,1010.48
2016-08-03T02:29:35.062Z,1010.47
2016-08-03T02:30:35.093Z,1010.48
2016-08-03T02:31:35.106Z,1010.47
2016-08-03T02:32:35.129Z,1010.47
2016-08-03T02:33:35.150Z,1010.47
2016-08-03T02:34:35.172Z,1010.42
2016-08-03T02:35:35.190Z,1010.44
2016-08-03T02:36:35.220Z,1010.48
2016-08-03T02:37:35.238Z,1010.43
2016-08-03T02:38:35.256Z,1010.41
2016-08-03T02:39:35.294Z,1010.35
2016-08-03T02:40:35.297Z,1010.37
2016-08-03T02:41:35.382Z,1010.39
2016-08-03T02:42:35.349Z,1010.39
2016-08-03T02:43:35.370Z,1010.4
2016-08-03T02:44:35.385Z,1010.41
2016-08-03T02:45:35.411Z,1010.39
2016-08-03T02:46:35.430Z,1010.39
2016-08-03T02:47:35.453Z,1010.41
2016-08-03T02:48:35.482Z,1010.39
2016-08-03T02:49:35.501Z,1010.37
2016-08-03T02:50:35.571Z,1010.36
2016-08-03T02:51:35.541Z,1010.35
2016-08-03T02:52:35.663Z,1010.36
2016-08-03T02:53:35.582Z,1010.34
2016-08-03T02:54:35.700Z,1010.36
2016-08-03T02:55:35.631Z,1010.36
2016-08-03T02:56:35.650Z,1010.38
2016-08-03T02:57:35.677Z,1010.38
2016-08-03T02:58:35.697Z,1010.36
2016-08-03T02:59:35.712Z,1010.36
2016-08-03T03:00:35.741Z,1010.35
2016-08-03T03:01:35.768Z,1010.36
2016-08-03T03:02:35.778Z,1010.34
2016-08-03T03:03:35.802Z,1010.32
2016-08-03T03:04:35.821Z,1010.34
2016-08-03T03:05:35.852Z,1010.35
2016-08-03T03:06:35.871Z,1010.29
2016-08-03T03:07:35.896Z,1010.33
2016-08-03T03:08:35.912Z,1010.28
2016-08-03T03:09:35.932Z,1010.28
2016-08-03T03:10:35.953Z,1010.33
2016-08-03T03:11:35.980Z,1010.29
2016-08-03T03:12:36.004Z,1010.27
2016-08-03T03:13:36.023Z,1010.29
2016-08-03T03:14:36.043Z,1010.25
2016-08-03T03:15:36.061Z,1010.28
2016-08-03T03:16:36.088Z,1010.25
2016-08-03T03:17:36.113Z,1010.29
2016-08-03T03:18:36.134Z,1010.24
2016-08-03T03:19:36.157Z,1010.21
2016-08-03T03:20:36.173Z,1010.2
2016-08-03T03:21:36.192Z,1010.22
2016-08-03T03:22:36.225Z,1010.18
2016-08-03T03:23:36.251Z,1010.17
2016-08-03T03:24:36.262Z,1010.16
2016-08-03T03:25:36.280Z,1010.18
2016-08-03T03:26:36.307Z,1010.14
2016-08-03T03:27:36.328Z,1010.15
2016-08-03T03:28:36.351Z,1010.13
2016-08-03T03:29:36.372Z,1010.15
2016-08-03T03:30:36.391Z,1010.14
2016-08-03T03:31:36.410Z,1010.09
2016-08-03T03:32:36.442Z,1010.08
2016-08-03T03:33:36.456Z,1010.07
2016-08-03T03:34:36.480Z,1010.05
2016-08-03T03:35:36.513Z,1010.03
2016-08-03T03:36:36.520Z,1010.05
2016-08-03T03:37:36.553Z,1010.04
2016-08-03T03:38:36.571Z,1010.02
2016-08-03T03:39:36.591Z,1010
2016-08-03T03:40:36.613Z,1010
2016-08-03T03:41:36.636Z,1009.99
2016-08-03T03:42:36.657Z,1010
2016-08-03T03:43:36.677Z,1009.98
2016-08-03T03:44:36.703Z,1009.99
2016-08-03T03:45:36.733Z,1009.99
2016-08-03T03:46:36.744Z,1010.02
2016-08-03T03:47:36.970Z,1010.01
2016-08-03T03:48:36.992Z,1010.01
2016-08-03T03:49:37.111Z,1010.05
2016-08-03T03:50:37.031Z,1010.03
2016-08-03T03:51:37.159Z,1010.02
2016-08-03T03:52:36.975Z,1010.02
2016-08-03T03:53:37.151Z,1010.05
2016-08-03T03:54:36.971Z,1010.02
2016-08-03T03:55:37.143Z,1010.01
2016-08-03T03:56:37.017Z,1009.99
2016-08-03T03:57:37.089Z,1010
2016-08-03T03:58:37.009Z,1009.98
2016-08-03T03:59:37.029Z,1009.89
2016-08-03T04:00:37.052Z,1009.89
2016-08-03T04:01:37.075Z,1009.91
2016-08-03T04:02:37.095Z,1009.88
2016-08-03T04:03:37.124Z,1009.86
2016-08-03T04:04:37.191Z,1009.84
2016-08-03T04:05:37.165Z,1009.85
2016-08-03T04:06:37.188Z,1009.82
2016-08-03T04:07:37.210Z,1009.82
2016-08-03T04:08:37.233Z,1009.77
2016-08-03T04:09:37.263Z,1009.79
2016-08-03T04:10:37.277Z,1009.74
2016-08-03T04:11:37.296Z,1009.74
2016-08-03T04:12:37.323Z,1009.71
2016-08-03T04:13:37.342Z,1009.73
2016-08-03T04:15:37.391Z,1009.73
2016-08-03T04:16:37.408Z,1009.72
2016-08-03T04:17:37.429Z,1009.66
2016-08-03T04:18:37.451Z,1009.65
2016-08-03T04:19:37.470Z,1009.65
2016-08-03T04:20:37.495Z,1009.68
2016-08-03T04:21:37.518Z,1009.62
2016-08-03T04:22:37.541Z,1009.68
2016-08-03T04:23:37.572Z,1009.69
2016-08-03T04:24:37.584Z,1009.69
2016-08-03T04:25:37.612Z,1009.68
2016-08-03T04:26:37.627Z,1009.67
2016-08-03T04:27:37.651Z,1009.7
2016-08-03T04:28:37.684Z,1009.69
2016-08-03T04:30:37.750Z,1009.62
2016-08-03T04:31:37.745Z,1009.62
2016-08-03T04:32:37.761Z,1009.58
2016-08-03T04:33:37.788Z,1009.57
2016-08-03T04:34:37.808Z,1009.57
2016-08-03T04:35:37.834Z,1009.62
2016-08-03T04:36:37.851Z,1009.61
2016-08-03T04:37:37.873Z,1009.63
2016-08-03T04:38:37.901Z,1009.58
2016-08-03T04:39:37.921Z,1009.61
2016-08-03T04:40:37.950Z,1009.56
2016-08-03T04:41:37.962Z,1009.55
2016-08-03T04:42:37.986Z,1009.61
2016-08-03T04:43:38.012Z,1009.63
2016-08-03T04:45:38.054Z,1009.62
2016-08-03T04:46:38.071Z,1009.63
2016-08-03T04:47:38.102Z,1009.61
2016-08-03T04:48:38.124Z,1009.52
2016-08-03T04:49:38.144Z,1009.5
2016-08-03T04:50:38.167Z,1009.45
2016-08-03T04:51:38.192Z,1009.44
2016-08-03T04:52:38.210Z,1009.44
2016-08-03T04:53:38.233Z,1009.44
2016-08-03T04:54:38.252Z,1009.47
2016-08-03T04:55:38.282Z,1009.47
2016-08-03T04:56:38.296Z,1009.48
2016-08-03T04:57:38.324Z,1009.42
2016-08-03T04:58:38.345Z,1009.45
2016-08-03T04:59:38.371Z,1009.46
2016-08-03T05:00:38.385Z,1009.48
2016-08-03T05:01:38.417Z,1009.44
2016-08-03T05:02:38.442Z,1009.45
2016-08-03T05:03:38.451Z,1009.53
2016-08-03T05:04:38.475Z,1009.51
2016-08-03T05:05:38.515Z,1009.54
2016-08-03T05:06:38.524Z,1009.52
2016-08-03T05:07:38.543Z,1009.57
2016-08-03T05:08:38.575Z,1009.57
2016-08-03T05:09:38.590Z,1009.55
2016-08-03T05:10:38.614Z,1009.51
2016-08-03T05:11:38.632Z,1009.4
2016-08-03T05:12:38.663Z,1009.36
2016-08-03T05:13:38.678Z,1009.31
2016-08-03T05:14:38.710Z,1009.28
2016-08-03T05:15:38.725Z,1009.18
2016-08-03T05:16:38.753Z,1009.14
2016-08-03T05:17:38.768Z,1009.16
2016-08-03T05:18:38.794Z,1009.15
2016-08-03T05:19:38.819Z,1009.11
2016-08-03T05:20:38.845Z,1009.12
2016-08-03T05:21:38.859Z,1009.16
2016-08-03T05:22:38.884Z,1009.21
2016-08-03T05:23:38.906Z,1009.3
2016-08-03T05:24:38.933Z,1009.29
2016-08-03T05:25:38.955Z,1009.33
2016-08-03T05:26:38.968Z,1009.34
2016-08-03T05:27:38.994Z,1009.38
2016-08-03T05:28:39.020Z,1009.37
2016-08-03T05:29:39.044Z,1009.4
2016-08-03T05:30:39.058Z,1009.41
2016-08-03T05:31:39.081Z,1009.38
2016-08-03T05:32:39.107Z,1009.42
2016-08-03T05:33:39.146Z,1009.43
2016-08-03T05:34:39.152Z,1009.48
2016-08-03T05:35:39.174Z,1009.44
2016-08-03T05:36:39.206Z,1009.47
2016-08-03T05:37:39.218Z,1009.43
2016-08-03T05:38:39.245Z,1009.47
2016-08-03T05:39:39.265Z,1009.46
2016-08-03T05:40:39.293Z,1009.4
2016-08-03T05:41:39.311Z,1009.43
2016-08-03T05:42:39.341Z,1009.4
2016-08-03T05:43:39.361Z,1009.43
2016-08-03T05:44:39.384Z,1009.44
2016-08-03T05:45:39.405Z,1009.42
2016-08-03T05:46:39.424Z,1009.44
2016-08-03T05:47:39.446Z,1009.41
2016-08-03T05:48:39.473Z,1009.38
2016-08-03T05:49:39.591Z,1009.32
2016-08-03T05:50:39.522Z,1009.28
2016-08-03T05:51:39.538Z,1009.22
2016-08-03T05:52:39.559Z,1009.22
2016-08-03T05:53:39.582Z,1009.18
2016-08-03T05:54:39.607Z,1009.17
2016-08-03T05:55:39.631Z,1009.19
2016-08-03T05:56:39.653Z,1009.17
2016-08-03T05:57:39.671Z,1009.21
2016-08-03T05:58:39.700Z,1009.08
2016-08-03T05:59:39.723Z,1009.11
2016-08-03T06:00:39.740Z,1009.13
2016-08-03T06:01:39.766Z,1009.06
2016-08-03T06:02:39.790Z,1009.02
2016-08-03T06:03:39.813Z,1008.99
2016-08-03T06:04:39.833Z,1008.95
2016-08-03T06:05:39.864Z,1008.94
2016-08-03T06:06:39.877Z,1009
2016-08-03T06:07:39.902Z,1009.03
2016-08-03T06:08:39.936Z,1009.06
2016-08-03T06:09:39.951Z,1009.06
2016-08-03T06:10:39.970Z,1009.02
2016-08-03T06:11:40.004Z,1009.06
2016-08-03T06:12:40.024Z,1009.04
2016-08-03T06:13:40.037Z,1009.09
2016-08-03T06:14:40.059Z,1009.08
2016-08-03T06:15:40.092Z,1009.1
2016-08-03T06:16:40.114Z,1009.12
2016-08-03T06:17:40.135Z,1009.09
2016-08-03T06:18:40.158Z,1009.11
2016-08-03T06:19:40.180Z,1009.09
2016-08-03T06:20:40.201Z,1009.09
2016-08-03T06:21:40.222Z,1009.12
2016-08-03T06:22:40.254Z,1009.09
2016-08-03T06:23:40.273Z,1009.1
2016-08-03T06:24:40.305Z,1009.03
2016-08-03T06:25:40.325Z,1009.05
2016-08-03T06:26:40.342Z,1009.03
2016-08-03T06:27:40.363Z,1009.01
2016-08-03T06:28:40.388Z,1009.04
2016-08-03T06:29:40.414Z,1009.05
2016-08-03T06:30:40.438Z,1009.02
2016-08-03T06:31:40.460Z,1009.04
2016-08-03T06:32:40.496Z,1009.05
2016-08-03T06:33:40.503Z,1009.07
2016-08-03T06:34:40.532Z,1009.04
2016-08-03T06:35:40.552Z,1009.05
2016-08-03T06:36:40.575Z,1009.03
2016-08-03T06:37:40.594Z,1008.99
2016-08-03T06:38:40.621Z,1009
2016-08-03T06:39:40.643Z,1008.99
2016-08-03T06:40:40.674Z,1009.01
2016-08-03T06:41:40.694Z,1009.04
2016-08-03T06:42:40.713Z,1009.05
2016-08-03T06:43:40.735Z,1009.07
2016-08-03T06:44:40.764Z,1009.06
2016-08-03T06:45:40.782Z,1009.08
2016-08-03T06:46:40.812Z,1009.05
2016-08-03T06:47:40.828Z,1009.06
2016-08-03T06:48:40.851Z,1009.04
2016-08-03T06:49:40.881Z,1009.06
2016-08-03T06:50:40.904Z,1009.04
2016-08-03T06:51:40.923Z,1008.99
2016-08-03T06:52:40.951Z,1008.97
2016-08-03T06:53:40.965Z,1008.96
2016-08-03T06:54:40.995Z,1008.94
2016-08-03T06:55:41.013Z,1008.92
2016-08-03T06:56:41.037Z,1008.91
2016-08-03T06:57:41.069Z,1008.87
2016-08-03T06:58:41.083Z,1008.9
2016-08-03T06:59:41.163Z,1008.9
2016-08-03T07:00:41.133Z,1008.91
2016-08-03T07:01:41.152Z,1008.94
2016-08-03T07:02:41.179Z,1008.92
2016-08-03T07:03:41.198Z,1008.91
2016-08-03T07:04:41.222Z,1008.91
2016-08-03T07:05:41.251Z,1009.01
2016-08-03T07:06:41.271Z,1009.01
2016-08-03T07:07:41.296Z,1009.04
2016-08-03T07:08:41.322Z,1009.07
2016-08-03T07:09:41.362Z,1009.03
2016-08-03T07:10:41.370Z,1009.06
2016-08-03T07:11:41.389Z,1009.01
2016-08-03T07:12:41.412Z,1009.05
2016-08-03T07:13:41.445Z,1009.03
2016-08-03T07:14:41.463Z,1008.96
2016-08-03T07:15:41.488Z,1008.98
2016-08-03T07:16:41.508Z,1008.97
2016-08-03T07:17:41.531Z,1008.99
2016-08-03T07:18:41.560Z,1008.99
2016-08-03T07:19:41.581Z,1009.02
2016-08-03T07:20:41.602Z,1008.96
2016-08-03T07:21:41.631Z,1008.99
2016-08-03T07:22:41.653Z,1008.96
2016-08-03T07:23:41.678Z,1008.97
2016-08-03T07:24:41.700Z,1008.92
2016-08-03T07:25:41.724Z,1008.93
2016-08-03T07:26:41.749Z,1008.93
2016-08-03T07:27:41.778Z,1008.94
2016-08-03T07:28:41.804Z,1009.03
2016-08-03T07:29:41.824Z,1009.04
2016-08-03T07:30:41.853Z,1009.02
2016-08-03T07:31:41.877Z,1009.04
2016-08-03T07:32:41.894Z,1009.06
2016-08-03T07:33:41.931Z,1009.07
2016-08-03T07:34:41.951Z,1009.06
2016-08-03T07:35:41.972Z,1009.03
2016-08-03T07:36:41.998Z,1009.01
2016-08-03T07:37:42.017Z,1009.07
2016-08-03T07:38:42.046Z,1009.01
2016-08-03T07:39:42.065Z,1009.03
2016-08-03T07:40:42.105Z,1009.04
2016-08-03T07:41:42.126Z,1009.04
2016-08-03T07:42:42.153Z,1009.03
2016-08-03T07:43:42.171Z,1009.07
2016-08-03T07:44:42.193Z,1009.08
2016-08-03T07:45:42.224Z,1009.07
2016-08-03T07:46:42.253Z,1009.06
2016-08-03T07:47:42.273Z,1009.04
2016-08-03T07:48:42.297Z,1009.03
2016-08-03T07:49:42.322Z,1009.07
2016-08-03T07:50:42.398Z,1009.07
2016-08-03T07:51:42.366Z,1009.05
2016-08-03T07:52:42.394Z,1009.11
2016-08-03T07:53:42.420Z,1009.11
2016-08-03T07:54:42.452Z,1009.12
2016-08-03T07:55:42.470Z,1009.13
2016-08-03T07:56:42.494Z,1009.1
2016-08-03T07:57:42.524Z,1009.03
2016-08-03T07:58:42.542Z,1009.05
2016-08-03T07:59:42.574Z,1008.96
2016-08-03T08:00:42.595Z,1009.02
2016-08-03T08:01:42.618Z,1009
2016-08-03T08:02:42.650Z,1008.98
2016-08-03T08:03:42.672Z,1008.99
2016-08-03T08:04:42.691Z,1008.98
2016-08-03T08:05:42.720Z,1008.96
2016-08-03T08:06:42.741Z,1008.97
2016-08-03T08:07:42.772Z,1008.92
2016-08-03T08:08:42.795Z,1008.88
2016-08-03T08:09:42.823Z,1008.88
2016-08-03T08:10:42.849Z,1008.87
2016-08-03T08:11:42.877Z,1008.84
2016-08-03T08:12:42.903Z,1008.83
2016-08-03T08:13:42.925Z,1008.82
2016-08-03T08:14:42.946Z,1008.85
2016-08-03T08:15:42.977Z,1008.83
2016-08-03T08:16:43.006Z,1008.79
2016-08-03T08:17:43.031Z,1008.81
2016-08-03T08:18:43.055Z,1008.91
2016-08-03T08:19:43.101Z,1008.86
2016-08-03T08:20:43.102Z,1008.82
2016-08-03T08:21:43.130Z,1008.84
2016-08-03T08:22:43.152Z,1008.85
2016-08-03T08:23:43.180Z,1008.81
2016-08-03T08:24:43.203Z,1008.78
2016-08-03T08:25:43.235Z,1008.79
2016-08-03T08:26:43.272Z,1008.8
2016-08-03T08:27:43.284Z,1008.74
2016-08-03T08:28:43.300Z,1008.79
2016-08-03T08:29:43.335Z,1008.74
2016-08-03T08:31:43.375Z,1008.77
2016-08-03T08:32:43.400Z,1008.8
2016-08-03T08:33:43.425Z,1008.79
2016-08-03T08:34:43.454Z,1008.82
2016-08-03T08:35:43.480Z,1008.85
2016-08-03T08:36:43.506Z,1008.9
2016-08-03T08:37:43.532Z,1008.83
2016-08-03T08:38:43.553Z,1008.85
2016-08-03T08:39:43.580Z,1008.82
2016-08-03T08:40:43.661Z,1008.83
2016-08-03T08:41:43.627Z,1008.84
2016-08-03T08:42:43.652Z,1008.82
2016-08-03T08:43:43.673Z,1008.81
2016-08-03T08:44:43.702Z,1008.84
2016-08-03T08:45:43.731Z,1008.77
2016-08-03T08:46:43.754Z,1008.8
2016-08-03T08:47:43.782Z,1008.82
2016-08-03T08:48:43.806Z,1008.77
2016-08-03T08:49:43.830Z,1008.83
2016-08-03T08:50:43.865Z,1008.79
2016-08-03T08:51:43.873Z,1008.76
2016-08-03T08:52:43.902Z,1008.8
2016-08-03T08:53:43.928Z,1008.8
2016-08-03T08:54:43.954Z,1008.76
2016-08-03T08:55:43.983Z,1008.77
2016-08-03T08:56:44.005Z,1008.81
2016-08-03T08:57:44.029Z,1008.8
2016-08-03T08:58:44.052Z,1008.8
2016-08-03T08:59:44.079Z,1008.82
2016-08-03T09:00:44.110Z,1008.8
2016-08-03T09:01:44.131Z,1008.78
2016-08-03T09:02:44.153Z,1008.8
2016-08-03T09:03:44.177Z,1008.73
2016-08-03T09:04:44.202Z,1008.75
2016-08-03T09:05:44.235Z,1008.77
2016-08-03T09:06:44.262Z,1008.72
2016-08-03T09:07:44.294Z,1008.74
2016-08-03T09:08:44.318Z,1008.74
2016-08-03T09:09:44.332Z,1008.7
2016-08-03T09:10:44.354Z,1008.73
2016-08-03T09:11:44.381Z,1008.77
2016-08-03T09:12:44.414Z,1008.75
2016-08-03T09:13:44.435Z,1008.73
2016-08-03T09:14:44.462Z,1008.74
2016-08-03T09:15:44.494Z,1008.73
2016-08-03T09:16:44.512Z,1008.73
2016-08-03T09:17:44.544Z,1008.72
2016-08-03T09:18:44.575Z,1008.72
2016-08-03T09:19:44.590Z,1008.7
2016-08-03T09:20:44.622Z,1008.71
2016-08-03T09:21:44.640Z,1008.67
2016-08-03T09:22:44.672Z,1008.65
2016-08-03T09:23:44.693Z,1008.69
2016-08-03T09:24:44.723Z,1008.67
2016-08-03T09:25:44.746Z,1008.73
2016-08-03T09:26:44.771Z,1008.74
2016-08-03T09:27:44.798Z,1008.68
2016-08-03T09:28:44.829Z,1008.67
2016-08-03T09:29:44.851Z,1008.74
2016-08-03T09:30:44.883Z,1008.74
2016-08-03T09:31:44.916Z,1008.8
2016-08-03T09:32:44.930Z,1008.74
2016-08-03T09:33:44.962Z,1008.71
2016-08-03T09:34:44.988Z,1008.69
2016-08-03T09:35:45.011Z,1008.73
2016-08-03T09:36:45.041Z,1008.76
2016-08-03T09:37:45.068Z,1008.75
2016-08-03T09:38:45.089Z,1008.67
2016-08-03T09:39:45.124Z,1008.8
2016-08-03T09:40:45.145Z,1008.77
2016-08-03T09:41:45.173Z,1008.72
2016-08-03T09:42:45.203Z,1008.79
2016-08-03T09:43:45.223Z,1008.81
2016-08-03T09:44:45.361Z,1008.83
2016-08-03T09:45:45.284Z,1008.83
2016-08-03T09:46:45.312Z,1008.82
2016-08-03T09:47:45.332Z,1008.8
2016-08-03T09:48:45.362Z,1008.86
2016-08-03T09:49:45.389Z,1008.87
2016-08-03T09:50:45.424Z,1008.85
2016-08-03T09:51:45.448Z,1008.75
2016-08-03T09:52:45.476Z,1008.79
2016-08-03T09:53:45.503Z,1008.8
2016-08-03T09:54:45.526Z,1008.81
2016-08-03T09:55:45.651Z,1008.74
2016-08-03T09:56:45.576Z,1008.77
2016-08-03T09:57:45.620Z,1008.75
2016-08-03T09:58:45.633Z,1008.75
2016-08-03T09:59:45.658Z,1008.68
2016-08-03T10:00:45.683Z,1008.71
2016-08-03T10:01:45.711Z,1008.74
2016-08-03T10:02:45.747Z,1008.71
2016-08-03T10:03:45.761Z,1008.66
2016-08-03T10:04:45.792Z,1008.68
2016-08-03T10:05:45.823Z,1008.61
2016-08-03T10:06:45.850Z,1008.64
2016-08-03T10:07:45.882Z,1008.68
2016-08-03T10:08:45.899Z,1008.64
2016-08-03T10:09:45.921Z,1008.64
2016-08-03T10:10:45.952Z,1008.65
2016-08-03T10:11:45.980Z,1008.65
2016-08-03T10:12:46.016Z,1008.68
2016-08-03T10:13:46.029Z,1008.72
2016-08-03T10:14:46.063Z,1008.74
2016-08-03T10:15:46.081Z,1008.78
2016-08-03T10:16:46.114Z,1008.73
2016-08-03T10:17:46.135Z,1008.66
2016-08-03T10:18:46.163Z,1008.67
2016-08-03T10:19:46.191Z,1008.65
2016-08-03T10:20:46.221Z,1008.72
2016-08-03T10:21:46.243Z,1008.64
2016-08-03T10:22:46.274Z,1008.66
2016-08-03T10:23:46.299Z,1008.64
2016-08-03T10:24:46.321Z,1008.61
2016-08-03T10:25:46.354Z,1008.57
2016-08-03T10:26:46.382Z,1008.64
2016-08-03T10:27:46.411Z,1008.6
2016-08-03T10:28:46.433Z,1008.63
2016-08-03T10:29:46.459Z,1008.61
2016-08-03T10:30:46.501Z,1008.57
2016-08-03T10:31:46.511Z,1008.64
2016-08-03T10:32:46.540Z,1008.59
2016-08-03T10:33:46.573Z,1008.6
2016-08-03T10:34:46.591Z,1008.59
2016-08-03T10:35:46.617Z,1008.56
2016-08-03T10:36:46.643Z,1008.63
2016-08-03T10:37:46.673Z,1008.6
2016-08-03T10:38:46.708Z,1008.55
2016-08-03T10:39:46.721Z,1008.58
2016-08-03T10:40:46.751Z,1008.55
2016-08-03T10:41:46.776Z,1008.62
2016-08-03T10:42:46.801Z,1008.61
2016-08-03T10:43:46.832Z,1008.58
2016-08-03T10:44:46.853Z,1008.68
2016-08-03T10:45:46.891Z,1008.6
2016-08-03T10:46:46.915Z,1008.63
2016-08-03T10:47:46.937Z,1008.63
2016-08-03T10:48:46.964Z,1008.66
2016-08-03T10:49:46.996Z,1008.65
2016-08-03T10:50:47.062Z,1008.63
2016-08-03T10:51:47.039Z,1008.67
2016-08-03T10:52:47.067Z,1008.62
2016-08-03T10:53:47.092Z,1008.64
2016-08-03T10:54:47.111Z,1008.6
2016-08-03T10:55:47.143Z,1008.64
2016-08-03T10:56:47.163Z,1008.69
2016-08-03T10:57:47.202Z,1008.62
2016-08-03T10:58:47.211Z,1008.69
2016-08-03T10:59:47.244Z,1008.68
2016-08-03T11:00:47.269Z,1008.71
2016-08-03T11:01:47.299Z,1008.67
2016-08-03T11:02:47.323Z,1008.66
2016-08-03T11:03:47.346Z,1008.66
2016-08-03T11:04:47.373Z,1008.61
2016-08-03T11:05:47.397Z,1008.64
2016-08-03T11:06:47.421Z,1008.65
2016-08-03T11:07:47.450Z,1008.73
2016-08-03T11:08:47.483Z,1008.61
2016-08-03T11:09:47.501Z,1008.61
2016-08-03T11:10:47.531Z,1008.64
2016-08-03T11:11:47.557Z,1008.63
2016-08-03T11:12:47.579Z,1008.67
2016-08-03T11:13:47.611Z,1008.66
2016-08-03T11:14:47.640Z,1008.62
2016-08-03T11:15:47.672Z,1008.61
2016-08-03T11:16:47.695Z,1008.57
2016-08-03T11:17:47.723Z,1008.58
2016-08-03T11:18:47.745Z,1008.68
2016-08-03T11:19:47.787Z,1008.58
2016-08-03T11:20:47.801Z,1008.58
2016-08-03T11:21:47.824Z,1008.62
2016-08-03T11:22:47.855Z,1008.71
2016-08-03T11:23:47.873Z,1008.67
2016-08-03T11:24:47.900Z,1008.65
2016-08-03T11:25:47.933Z,1008.65
2016-08-03T11:26:47.962Z,1008.58
2016-08-03T11:27:47.997Z,1008.58
2016-08-03T11:28:48.009Z,1008.59
2016-08-03T11:29:48.035Z,1008.64
2016-08-03T11:30:48.064Z,1008.63
2016-08-03T11:31:48.093Z,1008.63
2016-08-03T11:32:48.133Z,1008.63
2016-08-03T11:33:48.143Z,1008.62
2016-08-03T11:34:48.170Z,1008.55
2016-08-03T11:35:48.203Z,1008.58
2016-08-03T11:36:48.227Z,1008.57
2016-08-03T11:37:48.254Z,1008.68
2016-08-03T11:38:48.285Z,1008.67
2016-08-03T11:39:48.309Z,1008.68
2016-08-03T11:40:48.333Z,1008.7
2016-08-03T11:41:48.359Z,1008.61
2016-08-03T11:42:48.383Z,1008.57
2016-08-03T11:43:48.410Z,1008.56
2016-08-03T11:44:48.442Z,1008.59
2016-08-03T11:45:48.460Z,1008.54
2016-08-03T11:46:48.489Z,1008.56
2016-08-03T11:47:48.517Z,1008.57
2016-08-03T11:48:48.538Z,1008.64
2016-08-03T11:49:48.568Z,1008.57
2016-08-03T11:50:48.602Z,1008.62
2016-08-03T11:51:48.617Z,1008.59
2016-08-03T11:52:48.644Z,1008.52
2016-08-03T11:53:48.675Z,1008.61
2016-08-03T11:54:48.703Z,1008.54
2016-08-03T11:55:48.731Z,1008.56
2016-08-03T11:56:48.753Z,1008.52
2016-08-03T11:57:48.780Z,1008.55
2016-08-03T11:58:48.801Z,1008.55
2016-08-03T11:59:48.833Z,1008.51
2016-08-03T12:00:48.855Z,1008.59
2016-08-03T12:01:48.886Z,1008.58
2016-08-03T12:02:48.909Z,1008.59
2016-08-03T12:03:48.943Z,1008.61
2016-08-03T12:04:48.969Z,1008.53
2016-08-03T12:05:48.989Z,1008.57
2016-08-03T12:06:49.016Z,1008.57
2016-08-03T12:07:49.046Z,1008.55
2016-08-03T12:08:49.062Z,1008.61
2016-08-03T12:09:49.089Z,1008.56
2016-08-03T12:10:49.123Z,1008.6
2016-08-03T12:11:49.139Z,1008.6
2016-08-03T12:12:49.178Z,1008.64
2016-08-03T12:13:49.200Z,1008.67